sensor_id;sensor_type;location;lat;lon;timestamp;temperature;humidity
5806;DHT22;2929;50.810;8.342;2022-08-01T00:01:50;19.20;99.90
5806;DHT22;2929;50.810;8.342;2022-08-01T00:04:17;19.30;99.90
5806;DHT22;2929;50.810;8.342;2022-08-01T00:06:44;19.20;99.90
5806;DHT22;2929;50.810;8.342;2022-08-01T00:09:11;19.10;99.90
5806;DHT22;2929;50.810;8.342;2022-08-01T00:11:39;19.10;99.90
5806;DHT22;2929;50.810;8.342;2022-08-01T00:14:08;19.00;99.90
5806;DHT22;2929;50.810;8.342;2022-08-01T00:16:36;19.00;99.90
5806;DHT22;2929;50.810;8.342;2022-08-01T00:19:03;19.10;99.90
5806;DHT22;2929;50.810;8.342;2022-08-01T00:21:30;19.00;99.90
5806;DHT22;2929;50.810;8.342;2022-08-01T00:23:57;19.00;99.90
5806;DHT22;2929;50.810;8.342;2022-08-01T00:26:24;19.00;99.90
5806;DHT22;2929;50.810;8.342;2022-08-01T00:28:51;19.10;99.90
5806;DHT22;2929;50.810;8.342;2022-08-01T00:31:20;19.10;99.90
5806;DHT22;2929;50.810;8.342;2022-08-01T00:33:47;19.10;99.90
5806;DHT22;2929;50.810;8.342;2022-08-01T00:36:14;19.00;99.90
5806;DHT22;2929;50.810;8.342;2022-08-01T00:38:41;19.00;99.90
5806;DHT22;2929;50.810;8.342;2022-08-01T00:41:08;19.00;99.90
5806;DHT22;2929;50.810;8.342;2022-08-01T00:43:35;19.00;99.90
5806;DHT22;2929;50.810;8.342;2022-08-01T00:46:02;19.00;99.90
5806;DHT22;2929;50.810;8.342;2022-08-01T00:48:30;18.90;99.90
5806;DHT22;2929;50.810;8.342;2022-08-01T00:50:57;18.90;99.90
5806;DHT22;2929;50.810;8.342;2022-08-01T00:53:26;18.90;99.90
5806;DHT22;2929;50.810;8.342;2022-08-01T00:55:53;18.90;99.90
5806;DHT22;2929;50.810;8.342;2022-08-01T00:58:20;18.90;99.90
5806;DHT22;2929;50.810;8.342;2022-08-01T01:00:47;18.90;99.90
5806;DHT22;2929;50.810;8.342;2022-08-01T01:03:14;18.80;99.90
5806;DHT22;2929;50.810;8.342;2022-08-01T01:05:48;18.90;99.90
5806;DHT22;2929;50.810;8.342;2022-08-01T01:08:22;18.90;99.90
5806;DHT22;2929;50.810;8.342;2022-08-01T01:14:44;18.80;99.90
5806;DHT22;2929;50.810;8.342;2022-08-01T01:17:19;18.70;99.90
5806;DHT22;2929;50.810;8.342;2022-08-01T01:19:48;18.70;99.90
5806;DHT22;2929;50.810;8.342;2022-08-01T01:22:27;18.80;99.90
5806;DHT22;2929;50.810;8.342;2022-08-01T01:25:17;18.60;99.90
5806;DHT22;2929;50.810;8.342;2022-08-01T01:27:51;18.60;99.90
5806;DHT22;2929;50.810;8.342;2022-08-01T01:30:28;18.60;99.90
5806;DHT22;2929;50.810;8.342;2022-08-01T01:32:58;18.70;99.90
5806;DHT22;2929;50.810;8.342;2022-08-01T01:35:29;18.70;99.90
5806;DHT22;2929;50.810;8.342;2022-08-01T01:38:01;18.70;99.90
5806;DHT22;2929;50.810;8.342;2022-08-01T01:40:31;18.60;99.90
5806;DHT22;2929;50.810;8.342;2022-08-01T01:43:00;18.60;99.90
5806;DHT22;2929;50.810;8.342;2022-08-01T01:45:28;18.70;99.90
5806;DHT22;2929;50.810;8.342;2022-08-01T01:47:57;18.60;99.90
5806;DHT22;2929;50.810;8.342;2022-08-01T01:50:25;18.70;99.90
5806;DHT22;2929;50.810;8.342;2022-08-01T01:52:53;18.60;99.90
5806;DHT22;2929;50.810;8.342;2022-08-01T01:55:23;18.60;99.90
5806;DHT22;2929;50.810;8.342;2022-08-01T01:57:52;18.70;99.90
5806;DHT22;2929;50.810;8.342;2022-08-01T02:00:21;18.60;99.90
5806;DHT22;2929;50.810;8.342;2022-08-01T02:02:51;18.60;99.90
5806;DHT22;2929;50.810;8.342;2022-08-01T02:05:20;18.60;99.90
5806;DHT22;2929;50.810;8.342;2022-08-01T02:07:49;18.60;99.90
5806;DHT22;2929;50.810;8.342;2022-08-01T02:10:18;18.60;99.90
5806;DHT22;2929;50.810;8.342;2022-08-01T02:12:47;18.60;99.90
5806;DHT22;2929;50.810;8.342;2022-08-01T02:15:16;18.70;99.90
5806;DHT22;2929;50.810;8.342;2022-08-01T02:17:48;18.70;99.90
5806;DHT22;2929;50.810;8.342;2022-08-01T02:20:17;18.70;99.90
5806;DHT22;2929;50.810;8.342;2022-08-01T02:22:48;18.60;99.90
5806;DHT22;2929;50.810;8.342;2022-08-01T02:25:22;18.70;99.90
5806;DHT22;2929;50.810;8.342;2022-08-01T02:27:54;18.60;99.90
5806;DHT22;2929;50.810;8.342;2022-08-01T02:30:24;18.60;99.90
5806;DHT22;2929;50.810;8.342;2022-08-01T02:32:59;18.60;99.90
5806;DHT22;2929;50.810;8.342;2022-08-01T02:35:31;18.60;99.90
5806;DHT22;2929;50.810;8.342;2022-08-01T02:38:01;18.60;99.90
5806;DHT22;2929;50.810;8.342;2022-08-01T02:40:31;18.60;99.90
5806;DHT22;2929;50.810;8.342;2022-08-01T02:42:59;18.50;99.90
5806;DHT22;2929;50.810;8.342;2022-08-01T02:45:28;18.50;99.90
5806;DHT22;2929;50.810;8.342;2022-08-01T02:48:00;18.50;99.90
5806;DHT22;2929;50.810;8.342;2022-08-01T02:50:29;18.60;99.90
5806;DHT22;2929;50.810;8.342;2022-08-01T02:52:59;18.60;99.90
5806;DHT22;2929;50.810;8.342;2022-08-01T02:55:27;18.50;99.90
5806;DHT22;2929;50.810;8.342;2022-08-01T02:57:55;18.60;99.90
5806;DHT22;2929;50.810;8.342;2022-08-01T03:00:23;18.50;99.90
5806;DHT22;2929;50.810;8.342;2022-08-01T03:02:52;18.40;99.90
5806;DHT22;2929;50.810;8.342;2022-08-01T03:05:21;18.40;99.90
5806;DHT22;2929;50.810;8.342;2022-08-01T03:07:52;18.40;99.90
5806;DHT22;2929;50.810;8.342;2022-08-01T03:10:19;18.40;99.90
5806;DHT22;2929;50.810;8.342;2022-08-01T03:12:48;18.40;99.90
5806;DHT22;2929;50.810;8.342;2022-08-01T03:15:17;18.30;99.90
5806;DHT22;2929;50.810;8.342;2022-08-01T03:17:47;18.30;99.90
5806;DHT22;2929;50.810;8.342;2022-08-01T03:20:16;18.30;99.90
5806;DHT22;2929;50.810;8.342;2022-08-01T03:22:45;18.30;99.90
5806;DHT22;2929;50.810;8.342;2022-08-01T03:25:16;18.30;99.90
5806;DHT22;2929;50.810;8.342;2022-08-01T03:27:47;18.30;99.90
5806;DHT22;2929;50.810;8.342;2022-08-01T03:30:16;18.20;99.90
5806;DHT22;2929;50.810;8.342;2022-08-01T03:32:44;18.20;99.90
5806;DHT22;2929;50.810;8.342;2022-08-01T03:35:11;18.20;99.90
5806;DHT22;2929;50.810;8.342;2022-08-01T03:37:43;18.20;99.90
5806;DHT22;2929;50.810;8.342;2022-08-01T03:40:16;18.30;99.90
5806;DHT22;2929;50.810;8.342;2022-08-01T03:42:47;18.30;99.90
5806;DHT22;2929;50.810;8.342;2022-08-01T03:45:20;18.30;99.90
5806;DHT22;2929;50.810;8.342;2022-08-01T03:47:49;18.30;99.90
5806;DHT22;2929;50.810;8.342;2022-08-01T03:50:22;18.30;99.90
5806;DHT22;2929;50.810;8.342;2022-08-01T03:52:51;18.30;99.90
5806;DHT22;2929;50.810;8.342;2022-08-01T03:55:21;18.20;99.90
5806;DHT22;2929;50.810;8.342;2022-08-01T03:57:50;18.20;99.90
5806;DHT22;2929;50.810;8.342;2022-08-01T04:00:18;18.20;99.90
5806;DHT22;2929;50.810;8.342;2022-08-01T04:02:46;18.30;99.90
5806;DHT22;2929;50.810;8.342;2022-08-01T04:05:13;18.20;99.90
5806;DHT22;2929;50.810;8.342;2022-08-01T04:07:45;18.30;99.90
5806;DHT22;2929;50.810;8.342;2022-08-01T04:10:13;18.20;99.90
5806;DHT22;2929;50.810;8.342;2022-08-01T04:12:41;18.20;99.90
5806;DHT22;2929;50.810;8.342;2022-08-01T04:15:08;18.20;99.90
5806;DHT22;2929;50.810;8.342;2022-08-01T04:17:35;18.30;99.90
5806;DHT22;2929;50.810;8.342;2022-08-01T04:20:03;18.30;99.90
5806;DHT22;2929;50.810;8.342;2022-08-01T04:22:30;18.20;99.90
5806;DHT22;2929;50.810;8.342;2022-08-01T04:24:58;18.30;99.90
5806;DHT22;2929;50.810;8.342;2022-08-01T04:27:29;18.20;99.90
5806;DHT22;2929;50.810;8.342;2022-08-01T04:30:00;18.20;99.90
5806;DHT22;2929;50.810;8.342;2022-08-01T04:32:31;18.20;99.90
5806;DHT22;2929;50.810;8.342;2022-08-01T04:35:03;18.20;99.90
5806;DHT22;2929;50.810;8.342;2022-08-01T04:37:31;18.20;99.90
5806;DHT22;2929;50.810;8.342;2022-08-01T04:40:00;18.20;99.90
5806;DHT22;2929;50.810;8.342;2022-08-01T04:42:27;18.30;99.90
5806;DHT22;2929;50.810;8.342;2022-08-01T04:44:54;18.30;99.90
5806;DHT22;2929;50.810;8.342;2022-08-01T04:47:23;18.20;99.90
5806;DHT22;2929;50.810;8.342;2022-08-01T04:49:52;18.30;99.90
5806;DHT22;2929;50.810;8.342;2022-08-01T04:52:19;18.40;99.90
5806;DHT22;2929;50.810;8.342;2022-08-01T04:54:46;18.30;99.90
5806;DHT22;2929;50.810;8.342;2022-08-01T04:57:13;18.30;99.90
5806;DHT22;2929;50.810;8.342;2022-08-01T04:59:43;18.30;99.90
5806;DHT22;2929;50.810;8.342;2022-08-01T05:02:13;18.20;99.90
5806;DHT22;2929;50.810;8.342;2022-08-01T05:04:43;18.30;99.90
5806;DHT22;2929;50.810;8.342;2022-08-01T05:07:11;18.30;99.90
5806;DHT22;2929;50.810;8.342;2022-08-01T05:09:40;18.20;99.90
5806;DHT22;2929;50.810;8.342;2022-08-01T05:12:08;18.20;99.90
5806;DHT22;2929;50.810;8.342;2022-08-01T05:14:37;18.10;99.90
5806;DHT22;2929;50.810;8.342;2022-08-01T05:17:06;18.20;99.90
5806;DHT22;2929;50.810;8.342;2022-08-01T05:19:33;18.20;99.90
5806;DHT22;2929;50.810;8.342;2022-08-01T05:22:03;18.30;99.90
5806;DHT22;2929;50.810;8.342;2022-08-01T05:24:31;18.30;99.90
5806;DHT22;2929;50.810;8.342;2022-08-01T05:26:59;18.30;99.90
5806;DHT22;2929;50.810;8.342;2022-08-01T05:29:26;18.30;99.90
5806;DHT22;2929;50.810;8.342;2022-08-01T05:31:54;18.30;99.90
5806;DHT22;2929;50.810;8.342;2022-08-01T05:34:22;18.40;99.90
5806;DHT22;2929;50.810;8.342;2022-08-01T05:36:49;18.40;99.90
5806;DHT22;2929;50.810;8.342;2022-08-01T05:39:17;18.40;99.90
5806;DHT22;2929;50.810;8.342;2022-08-01T05:41:44;18.40;99.90
5806;DHT22;2929;50.810;8.342;2022-08-01T05:44:11;18.30;99.90
5806;DHT22;2929;50.810;8.342;2022-08-01T05:46:38;18.30;99.90
5806;DHT22;2929;50.810;8.342;2022-08-01T05:49:05;18.30;99.90
5806;DHT22;2929;50.810;8.342;2022-08-01T05:51:33;18.30;99.90
5806;DHT22;2929;50.810;8.342;2022-08-01T05:54:00;18.40;99.90
5806;DHT22;2929;50.810;8.342;2022-08-01T05:56:29;18.30;99.90
5806;DHT22;2929;50.810;8.342;2022-08-01T05:58:56;18.40;99.90
5806;DHT22;2929;50.810;8.342;2022-08-01T06:01:23;18.40;99.90
5806;DHT22;2929;50.810;8.342;2022-08-01T06:03:51;18.40;99.90
5806;DHT22;2929;50.810;8.342;2022-08-01T06:06:20;18.60;99.90
5806;DHT22;2929;50.810;8.342;2022-08-01T06:08:47;18.60;99.90
5806;DHT22;2929;50.810;8.342;2022-08-01T06:11:14;18.60;99.90
5806;DHT22;2929;50.810;8.342;2022-08-01T06:13:42;18.60;99.90
5806;DHT22;2929;50.810;8.342;2022-08-01T06:16:10;18.60;99.90
5806;DHT22;2929;50.810;8.342;2022-08-01T06:18:37;18.70;99.90
5806;DHT22;2929;50.810;8.342;2022-08-01T06:21:04;18.70;99.90
5806;DHT22;2929;50.810;8.342;2022-08-01T06:23:31;18.70;99.90
5806;DHT22;2929;50.810;8.342;2022-08-01T06:25:58;18.70;99.90
5806;DHT22;2929;50.810;8.342;2022-08-01T06:28:25;18.70;99.90
5806;DHT22;2929;50.810;8.342;2022-08-01T06:30:54;18.70;99.90
5806;DHT22;2929;50.810;8.342;2022-08-01T06:33:21;18.80;99.90
5806;DHT22;2929;50.810;8.342;2022-08-01T06:35:49;18.80;99.90
5806;DHT22;2929;50.810;8.342;2022-08-01T06:38:16;18.80;99.90
5806;DHT22;2929;50.810;8.342;2022-08-01T06:40:43;18.90;99.90
5806;DHT22;2929;50.810;8.342;2022-08-01T06:43:10;19.00;99.90
5806;DHT22;2929;50.810;8.342;2022-08-01T06:45:38;19.10;99.90
5806;DHT22;2929;50.810;8.342;2022-08-01T06:48:06;19.10;99.90
5806;DHT22;2929;50.810;8.342;2022-08-01T06:50:33;19.10;99.90
5806;DHT22;2929;50.810;8.342;2022-08-01T06:53:02;19.20;99.90
5806;DHT22;2929;50.810;8.342;2022-08-01T06:55:29;19.20;99.90
5806;DHT22;2929;50.810;8.342;2022-08-01T06:57:56;19.20;99.90
5806;DHT22;2929;50.810;8.342;2022-08-01T07:00:24;19.20;99.90
5806;DHT22;2929;50.810;8.342;2022-08-01T07:02:52;19.30;99.90
5806;DHT22;2929;50.810;8.342;2022-08-01T07:05:21;19.40;99.90
5806;DHT22;2929;50.810;8.342;2022-08-01T07:07:49;19.40;99.90
5806;DHT22;2929;50.810;8.342;2022-08-01T07:10:16;19.50;99.90
5806;DHT22;2929;50.810;8.342;2022-08-01T07:12:44;19.60;99.90
5806;DHT22;2929;50.810;8.342;2022-08-01T07:15:11;19.80;99.90
5806;DHT22;2929;50.810;8.342;2022-08-01T07:17:38;19.80;99.90
5806;DHT22;2929;50.810;8.342;2022-08-01T07:20:07;19.80;99.90
5806;DHT22;2929;50.810;8.342;2022-08-01T07:22:36;19.80;99.90
5806;DHT22;2929;50.810;8.342;2022-08-01T07:25:04;19.90;99.90
5806;DHT22;2929;50.810;8.342;2022-08-01T07:27:32;19.90;99.90
5806;DHT22;2929;50.810;8.342;2022-08-01T07:29:59;20.00;99.90
5806;DHT22;2929;50.810;8.342;2022-08-01T07:32:26;20.00;99.90
5806;DHT22;2929;50.810;8.342;2022-08-01T07:34:54;20.20;99.90
5806;DHT22;2929;50.810;8.342;2022-08-01T07:37:22;20.10;99.90
5806;DHT22;2929;50.810;8.342;2022-08-01T07:39:50;20.20;99.90
5806;DHT22;2929;50.810;8.342;2022-08-01T07:42:18;20.30;99.90
5806;DHT22;2929;50.810;8.342;2022-08-01T07:44:44;20.20;99.90
5806;DHT22;2929;50.810;8.342;2022-08-01T07:47:12;20.20;99.90
5806;DHT22;2929;50.810;8.342;2022-08-01T07:49:39;20.20;99.90
5806;DHT22;2929;50.810;8.342;2022-08-01T07:52:06;20.30;99.90
5806;DHT22;2929;50.810;8.342;2022-08-01T07:54:33;20.30;99.90
5806;DHT22;2929;50.810;8.342;2022-08-01T07:57:02;20.20;99.90
5806;DHT22;2929;50.810;8.342;2022-08-01T07:59:30;20.20;99.90
5806;DHT22;2929;50.810;8.342;2022-08-01T08:01:57;20.10;99.90
5806;DHT22;2929;50.810;8.342;2022-08-01T08:04:24;20.20;99.90
5806;DHT22;2929;50.810;8.342;2022-08-01T08:06:51;20.30;99.90
5806;DHT22;2929;50.810;8.342;2022-08-01T08:09:19;20.40;99.90
5806;DHT22;2929;50.810;8.342;2022-08-01T08:11:46;20.50;99.90
5806;DHT22;2929;50.810;8.342;2022-08-01T08:14:15;20.60;99.90
5806;DHT22;2929;50.810;8.342;2022-08-01T08:16:42;20.80;99.90
5806;DHT22;2929;50.810;8.342;2022-08-01T08:19:10;20.70;99.90
5806;DHT22;2929;50.810;8.342;2022-08-01T08:21:37;20.60;99.90
5806;DHT22;2929;50.810;8.342;2022-08-01T08:24:05;20.70;99.90
5806;DHT22;2929;50.810;8.342;2022-08-01T08:26:51;20.60;99.90
5806;DHT22;2929;50.810;8.342;2022-08-01T08:29:22;20.60;99.90
5806;DHT22;2929;50.810;8.342;2022-08-01T08:31:49;20.50;99.90
5806;DHT22;2929;50.810;8.342;2022-08-01T08:34:17;20.50;99.90
5806;DHT22;2929;50.810;8.342;2022-08-01T08:36:44;20.60;99.90
5806;DHT22;2929;50.810;8.342;2022-08-01T08:39:11;20.70;99.90
5806;DHT22;2929;50.810;8.342;2022-08-01T08:41:38;20.80;99.90
5806;DHT22;2929;50.810;8.342;2022-08-01T08:44:06;20.80;99.90
5806;DHT22;2929;50.810;8.342;2022-08-01T08:46:40;20.90;99.90
5806;DHT22;2929;50.810;8.342;2022-08-01T08:49:08;20.90;99.90
5806;DHT22;2929;50.810;8.342;2022-08-01T08:51:38;20.90;99.90
5806;DHT22;2929;50.810;8.342;2022-08-01T08:54:06;20.80;99.90
5806;DHT22;2929;50.810;8.342;2022-08-01T08:56:35;20.80;99.90
5806;DHT22;2929;50.810;8.342;2022-08-01T08:59:03;21.00;99.90
5806;DHT22;2929;50.810;8.342;2022-08-01T09:01:31;21.20;99.90
5806;DHT22;2929;50.810;8.342;2022-08-01T09:04:02;21.30;99.90
5806;DHT22;2929;50.810;8.342;2022-08-01T09:06:29;21.40;99.90
5806;DHT22;2929;50.810;8.342;2022-08-01T09:08:57;21.50;99.90
5806;DHT22;2929;50.810;8.342;2022-08-01T09:11:24;21.50;99.90
5806;DHT22;2929;50.810;8.342;2022-08-01T09:14:06;21.50;99.90
5806;DHT22;2929;50.810;8.342;2022-08-01T09:16:34;21.50;99.90
5806;DHT22;2929;50.810;8.342;2022-08-01T09:19:11;21.50;99.90
5806;DHT22;2929;50.810;8.342;2022-08-01T09:21:38;21.70;99.90
5806;DHT22;2929;50.810;8.342;2022-08-01T09:24:14;21.70;99.90
5806;DHT22;2929;50.810;8.342;2022-08-01T09:26:41;21.70;99.90
5806;DHT22;2929;50.810;8.342;2022-08-01T09:29:17;21.70;99.90
5806;DHT22;2929;50.810;8.342;2022-08-01T09:31:45;21.90;99.90
5806;DHT22;2929;50.810;8.342;2022-08-01T09:34:14;21.90;99.90
5806;DHT22;2929;50.810;8.342;2022-08-01T09:36:46;22.00;99.90
5806;DHT22;2929;50.810;8.342;2022-08-01T09:39:18;21.80;99.90
5806;DHT22;2929;50.810;8.342;2022-08-01T09:41:46;21.70;99.90
5806;DHT22;2929;50.810;8.342;2022-08-01T09:44:14;21.80;99.90
5806;DHT22;2929;50.810;8.342;2022-08-01T09:46:51;21.90;99.90
5806;DHT22;2929;50.810;8.342;2022-08-01T09:49:38;22.10;99.90
5806;DHT22;2929;50.810;8.342;2022-08-01T09:52:13;22.20;99.90
5806;DHT22;2929;50.810;8.342;2022-08-01T09:54:42;22.10;99.90
5806;DHT22;2929;50.810;8.342;2022-08-01T09:57:12;22.20;99.90
5806;DHT22;2929;50.810;8.342;2022-08-01T09:59:41;22.40;99.90
5806;DHT22;2929;50.810;8.342;2022-08-01T10:02:10;22.40;99.90
5806;DHT22;2929;50.810;8.342;2022-08-01T10:04:48;22.40;99.90
5806;DHT22;2929;50.810;8.342;2022-08-01T10:07:16;22.40;99.90
5806;DHT22;2929;50.810;8.342;2022-08-01T10:09:43;22.60;99.90
5806;DHT22;2929;50.810;8.342;2022-08-01T10:12:12;22.90;99.90
5806;DHT22;2929;50.810;8.342;2022-08-01T10:14:40;22.70;99.90
5806;DHT22;2929;50.810;8.342;2022-08-01T10:17:08;22.80;99.90
5806;DHT22;2929;50.810;8.342;2022-08-01T10:19:36;22.80;99.90
5806;DHT22;2929;50.810;8.342;2022-08-01T10:22:08;22.80;99.90
5806;DHT22;2929;50.810;8.342;2022-08-01T10:24:38;22.80;99.90
5806;DHT22;2929;50.810;8.342;2022-08-01T10:27:08;22.80;99.90
5806;DHT22;2929;50.810;8.342;2022-08-01T10:29:40;22.80;99.90
5806;DHT22;2929;50.810;8.342;2022-08-01T10:32:09;22.80;99.90
5806;DHT22;2929;50.810;8.342;2022-08-01T10:34:37;22.80;99.90
5806;DHT22;2929;50.810;8.342;2022-08-01T10:37:06;23.00;99.90
5806;DHT22;2929;50.810;8.342;2022-08-01T10:39:34;23.10;99.90
5806;DHT22;2929;50.810;8.342;2022-08-01T10:42:01;23.30;99.90
5806;DHT22;2929;50.810;8.342;2022-08-01T10:44:30;23.70;99.90
5806;DHT22;2929;50.810;8.342;2022-08-01T10:47:03;24.10;99.90
5806;DHT22;2929;50.810;8.342;2022-08-01T10:49:34;24.20;99.90
5806;DHT22;2929;50.810;8.342;2022-08-01T10:52:15;23.90;99.90
5806;DHT22;2929;50.810;8.342;2022-08-01T10:54:43;23.50;99.90
5806;DHT22;2929;50.810;8.342;2022-08-01T10:57:11;23.30;99.90
5806;DHT22;2929;50.810;8.342;2022-08-01T10:59:48;23.40;99.90
5806;DHT22;2929;50.810;8.342;2022-08-01T11:02:26;23.60;99.90
5806;DHT22;2929;50.810;8.342;2022-08-01T11:04:55;24.00;99.90
5806;DHT22;2929;50.810;8.342;2022-08-01T11:07:38;24.40;99.90
5806;DHT22;2929;50.810;8.342;2022-08-01T11:10:14;24.80;99.90
5806;DHT22;2929;50.810;8.342;2022-08-01T11:12:43;24.50;99.90
5806;DHT22;2929;50.810;8.342;2022-08-01T11:15:23;24.20;99.90
5806;DHT22;2929;50.810;8.342;2022-08-01T11:17:51;24.00;99.90
5806;DHT22;2929;50.810;8.342;2022-08-01T11:20:20;23.90;99.90
5806;DHT22;2929;50.810;8.342;2022-08-01T11:26:24;24.10;99.90
5806;DHT22;2929;50.810;8.342;2022-08-01T11:29:12;24.70;99.90
5806;DHT22;2929;50.810;8.342;2022-08-01T11:31:39;25.10;99.90
5806;DHT22;2929;50.810;8.342;2022-08-01T11:34:06;24.80;99.90
5806;DHT22;2929;50.810;8.342;2022-08-01T11:36:33;24.80;99.90
5806;DHT22;2929;50.810;8.342;2022-08-01T11:39:15;24.80;99.90
5806;DHT22;2929;50.810;8.342;2022-08-01T11:41:46;24.60;99.90
5806;DHT22;2929;50.810;8.342;2022-08-01T11:44:16;24.40;99.90
5806;DHT22;2929;50.810;8.342;2022-08-01T11:46:58;24.40;99.90
5806;DHT22;2929;50.810;8.342;2022-08-01T11:49:43;24.40;99.90
5806;DHT22;2929;50.810;8.342;2022-08-01T11:52:13;24.20;99.90
5806;DHT22;2929;50.810;8.342;2022-08-01T11:54:42;24.30;99.90
5806;DHT22;2929;50.810;8.342;2022-08-01T11:57:12;24.30;99.90
5806;DHT22;2929;50.810;8.342;2022-08-01T11:59:43;25.10;99.90
5806;DHT22;2929;50.810;8.342;2022-08-01T12:02:19;25.70;99.90
5806;DHT22;2929;50.810;8.342;2022-08-01T12:04:50;26.40;99.30
5806;DHT22;2929;50.810;8.342;2022-08-01T12:07:17;27.00;98.60
5806;DHT22;2929;50.810;8.342;2022-08-01T12:09:45;27.40;95.50
5806;DHT22;2929;50.810;8.342;2022-08-01T12:12:17;27.70;95.20
5806;DHT22;2929;50.810;8.342;2022-08-01T12:14:45;28.00;95.50
5806;DHT22;2929;50.810;8.342;2022-08-01T12:17:12;28.00;95.10
5806;DHT22;2929;50.810;8.342;2022-08-01T12:19:40;27.60;94.80
5806;DHT22;2929;50.810;8.342;2022-08-01T12:22:09;27.60;96.10
5806;DHT22;2929;50.810;8.342;2022-08-01T12:24:37;27.70;92.60
5806;DHT22;2929;50.810;8.342;2022-08-01T12:27:05;27.80;93.00
5806;DHT22;2929;50.810;8.342;2022-08-01T12:29:35;28.50;93.30
5806;DHT22;2929;50.810;8.342;2022-08-01T12:32:04;28.10;92.80
5806;DHT22;2929;50.810;8.342;2022-08-01T12:34:47;27.50;92.40
5806;DHT22;2929;50.810;8.342;2022-08-01T12:37:14;27.00;93.40
5806;DHT22;2929;50.810;8.342;2022-08-01T12:39:41;27.50;93.20
5806;DHT22;2929;50.810;8.342;2022-08-01T12:42:08;27.50;92.70
5806;DHT22;2929;50.810;8.342;2022-08-01T12:44:38;26.90;92.60
5806;DHT22;2929;50.810;8.342;2022-08-01T12:47:06;26.40;92.60
5806;DHT22;2929;50.810;8.342;2022-08-01T12:49:35;26.70;93.50
5806;DHT22;2929;50.810;8.342;2022-08-01T12:52:04;26.80;91.50
5806;DHT22;2929;50.810;8.342;2022-08-01T12:54:42;27.40;92.50
5806;DHT22;2929;50.810;8.342;2022-08-01T12:57:26;27.60;92.30
5806;DHT22;2929;50.810;8.342;2022-08-01T13:00:08;28.20;90.70
5806;DHT22;2929;50.810;8.342;2022-08-01T13:02:36;28.00;90.90
5806;DHT22;2929;50.810;8.342;2022-08-01T13:05:04;28.00;91.10
5806;DHT22;2929;50.810;8.342;2022-08-01T13:07:40;28.50;90.30
5806;DHT22;2929;50.810;8.342;2022-08-01T13:10:08;28.50;90.30
5806;DHT22;2929;50.810;8.342;2022-08-01T13:12:36;28.80;90.10
5806;DHT22;2929;50.810;8.342;2022-08-01T13:15:20;28.50;89.70
5806;DHT22;2929;50.810;8.342;2022-08-01T13:17:47;28.10;90.20
5806;DHT22;2929;50.810;8.342;2022-08-01T13:20:29;27.90;90.50
5806;DHT22;2929;50.810;8.342;2022-08-01T13:23:14;28.10;91.70
5806;DHT22;2929;50.810;8.342;2022-08-01T13:25:52;27.50;91.60
5806;DHT22;2929;50.810;8.342;2022-08-01T13:28:22;27.20;92.60
5806;DHT22;2929;50.810;8.342;2022-08-01T13:30:56;27.70;93.10
5806;DHT22;2929;50.810;8.342;2022-08-01T13:33:24;28.40;92.40
5806;DHT22;2929;50.810;8.342;2022-08-01T13:35:52;28.50;91.70
5806;DHT22;2929;50.810;8.342;2022-08-01T13:38:20;27.80;91.10
5806;DHT22;2929;50.810;8.342;2022-08-01T13:41:07;27.40;91.50
5806;DHT22;2929;50.810;8.342;2022-08-01T13:43:34;27.20;91.60
5806;DHT22;2929;50.810;8.342;2022-08-01T13:46:03;27.30;91.80
5806;DHT22;2929;50.810;8.342;2022-08-01T13:48:31;27.60;90.80
5806;DHT22;2929;50.810;8.342;2022-08-01T13:50:59;27.70;90.70
5806;DHT22;2929;50.810;8.342;2022-08-01T13:53:27;27.60;91.00
5806;DHT22;2929;50.810;8.342;2022-08-01T13:55:55;26.90;91.20
5806;DHT22;2929;50.810;8.342;2022-08-01T13:58:22;26.60;91.60
5806;DHT22;2929;50.810;8.342;2022-08-01T14:00:49;26.50;92.70
5806;DHT22;2929;50.810;8.342;2022-08-01T14:03:17;26.20;93.60
5806;DHT22;2929;50.810;8.342;2022-08-01T14:05:45;26.40;93.70
5806;DHT22;2929;50.810;8.342;2022-08-01T14:08:13;26.10;92.70
5806;DHT22;2929;50.810;8.342;2022-08-01T14:10:40;26.10;92.70
5806;DHT22;2929;50.810;8.342;2022-08-01T14:13:07;26.70;92.50
5806;DHT22;2929;50.810;8.342;2022-08-01T14:15:34;26.80;92.10
5806;DHT22;2929;50.810;8.342;2022-08-01T14:18:01;27.20;91.10
5806;DHT22;2929;50.810;8.342;2022-08-01T14:20:30;27.60;93.30
5806;DHT22;2929;50.810;8.342;2022-08-01T14:22:57;28.10;91.70
5806;DHT22;2929;50.810;8.342;2022-08-01T14:25:24;28.60;90.40
5806;DHT22;2929;50.810;8.342;2022-08-01T14:27:51;29.20;91.70
5806;DHT22;2929;50.810;8.342;2022-08-01T14:30:18;29.50;87.90
5806;DHT22;2929;50.810;8.342;2022-08-01T14:32:45;29.10;87.90
5806;DHT22;2929;50.810;8.342;2022-08-01T14:35:12;28.20;88.30
5806;DHT22;2929;50.810;8.342;2022-08-01T14:37:41;27.60;91.00
5806;DHT22;2929;50.810;8.342;2022-08-01T14:40:08;27.00;91.10
5806;DHT22;2929;50.810;8.342;2022-08-01T14:42:36;26.50;91.90
5806;DHT22;2929;50.810;8.342;2022-08-01T14:45:05;26.30;93.00
5806;DHT22;2929;50.810;8.342;2022-08-01T14:47:35;26.10;93.40
5806;DHT22;2929;50.810;8.342;2022-08-01T14:50:04;25.70;93.30
5806;DHT22;2929;50.810;8.342;2022-08-01T14:52:32;25.60;94.20
5806;DHT22;2929;50.810;8.342;2022-08-01T14:55:00;25.90;93.70
5806;DHT22;2929;50.810;8.342;2022-08-01T14:57:27;26.10;93.40
5806;DHT22;2929;50.810;8.342;2022-08-01T14:59:54;25.90;93.20
5806;DHT22;2929;50.810;8.342;2022-08-01T15:02:21;25.80;93.80
5806;DHT22;2929;50.810;8.342;2022-08-01T15:04:49;25.70;93.60
5806;DHT22;2929;50.810;8.342;2022-08-01T15:07:17;25.70;94.50
5806;DHT22;2929;50.810;8.342;2022-08-01T15:09:44;25.70;95.30
5806;DHT22;2929;50.810;8.342;2022-08-01T15:12:13;25.70;93.10
5806;DHT22;2929;50.810;8.342;2022-08-01T15:14:40;25.70;93.20
5806;DHT22;2929;50.810;8.342;2022-08-01T15:17:17;25.70;93.60
5806;DHT22;2929;50.810;8.342;2022-08-01T15:19:45;25.70;93.50
5806;DHT22;2929;50.810;8.342;2022-08-01T15:22:13;25.90;93.40
5806;DHT22;2929;50.810;8.342;2022-08-01T15:24:40;25.80;92.90
5806;DHT22;2929;50.810;8.342;2022-08-01T15:27:08;25.70;93.30
5806;DHT22;2929;50.810;8.342;2022-08-01T15:29:37;25.90;94.20
5806;DHT22;2929;50.810;8.342;2022-08-01T15:32:05;26.00;93.70
5806;DHT22;2929;50.810;8.342;2022-08-01T15:34:33;26.50;94.30
5806;DHT22;2929;50.810;8.342;2022-08-01T15:37:01;26.70;93.00
5806;DHT22;2929;50.810;8.342;2022-08-01T15:39:28;26.60;92.60
5806;DHT22;2929;50.810;8.342;2022-08-01T15:41:58;26.40;92.70
5806;DHT22;2929;50.810;8.342;2022-08-01T15:44:26;26.40;93.80
5806;DHT22;2929;50.810;8.342;2022-08-01T15:46:54;26.20;94.00
5806;DHT22;2929;50.810;8.342;2022-08-01T15:49:21;26.10;94.00
5806;DHT22;2929;50.810;8.342;2022-08-01T15:51:50;26.40;93.90
5806;DHT22;2929;50.810;8.342;2022-08-01T15:54:17;26.80;93.20
5806;DHT22;2929;50.810;8.342;2022-08-01T15:56:44;26.60;92.60
5806;DHT22;2929;50.810;8.342;2022-08-01T15:59:12;27.00;93.50
5806;DHT22;2929;50.810;8.342;2022-08-01T16:01:39;27.10;92.40
5806;DHT22;2929;50.810;8.342;2022-08-01T16:04:08;26.80;92.00
5806;DHT22;2929;50.810;8.342;2022-08-01T16:06:36;26.20;92.30
5806;DHT22;2929;50.810;8.342;2022-08-01T16:09:03;26.00;92.60
5806;DHT22;2929;50.810;8.342;2022-08-01T16:11:30;25.90;93.50
5806;DHT22;2929;50.810;8.342;2022-08-01T16:13:58;25.80;93.10
5806;DHT22;2929;50.810;8.342;2022-08-01T16:16:25;25.80;93.20
5806;DHT22;2929;50.810;8.342;2022-08-01T16:18:53;25.80;93.00
5806;DHT22;2929;50.810;8.342;2022-08-01T16:21:21;25.60;94.30
5806;DHT22;2929;50.810;8.342;2022-08-01T16:23:50;25.90;94.60